メインページ
METAR-TAF:

METAR-TAF

空港 :

東京 / 羽田国際空港, 日本

東京国際空港

緯度: 35-33N, 経度: 139-47E, 海抜: 5m

現時点の気象観測

当レポートは19分前の05:30(UTC)に作成
東/南東の風 4kt
気温 28°C
湿度 79%
気圧 1012 hPa
視程10km以上
高度2000ftの雲はほとんどない
千切れ雲あり

METAR: RJTT 200530Z 11004KT 9999 FEW020 BKN/// 28/24 Q1012 NOSIG

時間: 14:49 (05:49 UTC)

予報

当レポートは42分前の05:07(UTC)に作成
予報は20日の 06時(UTC)から 21日の 12時(UTC)まで有効
の風 10kt
視程10km以上
高度1000ftの雲はほとんどない
高度3000ftの千切れ雲あり
20日の 14時(UTC)から 20日の 16時(UTC)まで徐々に
北東の風 6kt
20日の 16時(UTC)から 20日の 21時(UTC)まで一時的に
高度500ftの雲はほとんどない
高度800ftの千切れ雲あり
21日の 00時(UTC)から 21日の 03時(UTC)まで徐々に
東/南東の風 6kt

TAF: RJTT 200507Z 2006/2112 09010KT 9999 FEW010 BKN030 BECMG 2014/2016 05006KT TEMPO 2016/2021 FEW005 BKN008 BECMG 2100/2103 12006KT

4,000以上の空港の気象観測と天気予報(METAR報とTAF報)

利用可能な観測所は地図上に黄色い丸と赤い丸で示す。

丸の上にカーソルを重ねると観測所名を参照できる。

次にクリックすると気象観測と天気予報を参照できる。

マップの切り替え:黒色「×」印の緑ボタンをクリックして拡大、「-」印の緑ボタンをクリックして縮小、緑色の三角印をクリックして隣りの地図に切り替え


METAR-TAF: